Indianapolis, IN (46201)

6:40 PM EST on January 27, 2015 (GMT -0500)
North Fountain Square | Change Station
CLOSE
Current Station
Personal Weather Station
Location: Indianapolis, IN
Elevation: 738 ft
Nearby Weather Stations

Elev 738 ft 39.76 °N, 86.14 °W | Updated 7 seconds ago

Clear
Clear
28.4 °F
Feels Like 28 °F
N
2.0
Wind Variable Wind from NNW
Gusts 2.5 mph

Today
High -- | Low -- °F
--% Chance of Precip.
Yesterday
High -- | Low -- °F
Precip. -- in
7:56 AM 5:57 PM
First Quarter, 58% visible
Pressure 30.20 in
Visibility 10.0 miles
Clouds Few 5000 ft
Few 25000 ft
Windchill 28 °F
Dew Point 6 °F
Humidity 38%
Rainfall 0.00 in
Snow Depth Not available.
UV 0 out of 12
Pollen .10 out of 12
Air Quality Not available.
Flu Activity Not available.
METAR KIND 272254Z 32008KT 10SM FEW050 FEW250 M04/M11 A3017 RMK AO2 SLP226 T10391111

More Conditions Fewer Conditions

Pressure 30.20 in
Visibility 10.0 miles
Clouds Few 5000 ft
Few 25000 ft
Windchill 28 °F
Dew Point 6 °F
Humidity 38%
Rainfall 0.00 in
Snow Depth Not available.
UV 0 out of 12
Pollen .10 out of 12
Air Quality Not available.
Flu Activity Not available.
METAR KIND 272254Z 32008KT 10SM FEW050 FEW250 M04/M11 A3017 RMK AO2 SLP226 T10391111

More Conditions Fewer Conditions

10-Day Weather Forecast

Almanac

Astronomy

Jan. 27, 2015 Rise Set
Actual Time
Civil Twilight
Nautical Twilight
Astronomical Twilight
Moon
Length of Visible Light
Length of Day
Tomorrow will be .
, % of the Moon is Illuminated

Today's Extremes

State Highs State Lows

Community

WunderPhotos

Upload Photos

1,790,986 photos uploaded!

WunderBlogs® & News

Nearby

Air Quality

  Air Quality AQ Index Pollutant
Not available.

Snow Depth

Station Depth Elevation

Earthquake Activity

City Distance Mag. Time & Date
Minimum magnitude displayed is 2.5.

Coastal Water Temperatures

Place Temperature

Nearby Weather Stations